logo
Search for airport 
image banner adimage banner adimage banner ad
image banner ad

OPNH - Nawabshah

Located in Nawabshah, Pakistan

ICAO - OPNH, IATA - WNS

Data provided by Airmate  

General information

Coordinates: N26°13'10" E68°23'24"
Elevation is 95 feet MSL.
 
View others Airports in Sindh

Operational data

Special qualification required
Current time UTC:
Current local time:
Weather
TAF: TAF OPNH 191100Z 1912/2018 21010KT 7000 SCT040 FM191800 23007KT 6000 SCT100 TEMPO 2000/2004 18005KT 4000 HZ SCT100 FM200400 16010KT 6000 SCT100
View NOTAMs / SUP AIP / TFR affecting this airport [VIEW]
Communications frequencies: [VIEW]

Runways:

RWY identifierQFULength (ft)Width (ft)SurfaceLDA (ft)
0221°8999151CON
20201°8999151CON

Airport contact information

Address: Nawabshah Pakistan

Satellite view of OPNH